sensor_id;sensor_type;location;lat;lon;timestamp;P1;durP1;ratioP1;P2;durP2;ratioP2
22287;SDS011;11312;51.464;6.968;2023-05-07T00:01:56;2.67;;;1.23;;
22287;SDS011;11312;51.464;6.968;2023-05-07T00:04:22;1.15;;;1.02;;
22287;SDS011;11312;51.464;6.968;2023-05-07T00:06:47;4.20;;;1.55;;
22287;SDS011;11312;51.464;6.968;2023-05-07T00:09:13;2.35;;;1.40;;
22287;SDS011;11312;51.464;6.968;2023-05-07T00:11:39;3.80;;;1.55;;
22287;SDS011;11312;51.464;6.968;2023-05-07T00:14:05;1.10;;;1.00;;
22287;SDS011;11312;51.464;6.968;2023-05-07T00:16:30;2.22;;;1.23;;
22287;SDS011;11312;51.464;6.968;2023-05-07T00:18:56;1.33;;;1.10;;
22287;SDS011;11312;51.464;6.968;2023-05-07T00:21:22;4.72;;;2.28;;
22287;SDS011;11312;51.464;6.968;2023-05-07T00:23:47;2.70;;;1.35;;
22287;SDS011;11312;51.464;6.968;2023-05-07T00:26:13;4.45;;;1.67;;
22287;SDS011;11312;51.464;6.968;2023-05-07T00:28:38;3.72;;;1.40;;
22287;SDS011;11312;51.464;6.968;2023-05-07T00:31:04;2.42;;;1.25;;
22287;SDS011;11312;51.464;6.968;2023-05-07T00:33:30;3.38;;;1.67;;
22287;SDS011;11312;51.464;6.968;2023-05-07T00:35:55;3.38;;;1.38;;
22287;SDS011;11312;51.464;6.968;2023-05-07T00:38:21;1.23;;;1.08;;
22287;SDS011;11312;51.464;6.968;2023-05-07T00:40:47;3.40;;;1.52;;
22287;SDS011;11312;51.464;6.968;2023-05-07T00:43:12;3.40;;;1.50;;
22287;SDS011;11312;51.464;6.968;2023-05-07T00:45:38;2.13;;;1.30;;
22287;SDS011;11312;51.464;6.968;2023-05-07T00:48:04;1.50;;;1.10;;
22287;SDS011;11312;51.464;6.968;2023-05-07T00:50:30;2.35;;;1.40;;
22287;SDS011;11312;51.464;6.968;2023-05-07T00:52:57;2.50;;;1.38;;
22287;SDS011;11312;51.464;6.968;2023-05-07T00:55:23;3.88;;;1.77;;
22287;SDS011;11312;51.464;6.968;2023-05-07T00:57:50;2.33;;;1.30;;
22287;SDS011;11312;51.464;6.968;2023-05-07T01:00:16;2.05;;;1.20;;
22287;SDS011;11312;51.464;6.968;2023-05-07T01:02:43;4.47;;;1.70;;
22287;SDS011;11312;51.464;6.968;2023-05-07T01:05:10;2.50;;;1.38;;
22287;SDS011;11312;51.464;6.968;2023-05-07T01:07:38;2.33;;;1.48;;
22287;SDS011;11312;51.464;6.968;2023-05-07T01:10:06;4.88;;;2.08;;
22287;SDS011;11312;51.464;6.968;2023-05-07T01:12:34;5.47;;;2.13;;
22287;SDS011;11312;51.464;6.968;2023-05-07T01:15:01;2.45;;;1.27;;
22287;SDS011;11312;51.464;6.968;2023-05-07T01:17:28;2.78;;;1.40;;
22287;SDS011;11312;51.464;6.968;2023-05-07T01:19:53;2.15;;;1.30;;
22287;SDS011;11312;51.464;6.968;2023-05-07T01:22:29;2.38;;;1.30;;
22287;SDS011;11312;51.464;6.968;2023-05-07T01:24:57;3.28;;;1.85;;
22287;SDS011;11312;51.464;6.968;2023-05-07T01:27:24;1.50;;;1.13;;
22287;SDS011;11312;51.464;6.968;2023-05-07T01:29:50;2.70;;;1.40;;
22287;SDS011;11312;51.464;6.968;2023-05-07T01:32:16;2.33;;;1.45;;
22287;SDS011;11312;51.464;6.968;2023-05-07T01:34:46;1.90;;;1.30;;
22287;SDS011;11312;51.464;6.968;2023-05-07T01:37:14;12.27;;;2.22;;
22287;SDS011;11312;51.464;6.968;2023-05-07T01:39:40;2.70;;;1.40;;
22287;SDS011;11312;51.464;6.968;2023-05-07T01:42:07;2.00;;;1.27;;
22287;SDS011;11312;51.464;6.968;2023-05-07T01:44:33;3.47;;;1.65;;
22287;SDS011;11312;51.464;6.968;2023-05-07T01:46:59;4.15;;;1.70;;
22287;SDS011;11312;51.464;6.968;2023-05-07T01:49:25;2.47;;;1.30;;
22287;SDS011;11312;51.464;6.968;2023-05-07T01:51:51;3.20;;;1.48;;
22287;SDS011;11312;51.464;6.968;2023-05-07T01:54:17;3.50;;;1.42;;
22287;SDS011;11312;51.464;6.968;2023-05-07T01:56:43;2.53;;;1.35;;
22287;SDS011;11312;51.464;6.968;2023-05-07T01:59:08;3.60;;;1.50;;
22287;SDS011;11312;51.464;6.968;2023-05-07T02:01:34;4.15;;;1.67;;
22287;SDS011;11312;51.464;6.968;2023-05-07T02:04:00;2.47;;;1.35;;
22287;SDS011;11312;51.464;6.968;2023-05-07T02:06:25;2.50;;;1.33;;
22287;SDS011;11312;51.464;6.968;2023-05-07T02:08:51;6.00;;;1.75;;
22287;SDS011;11312;51.464;6.968;2023-05-07T02:11:17;4.63;;;1.80;;
22287;SDS011;11312;51.464;6.968;2023-05-07T02:13:42;4.85;;;1.98;;
22287;SDS011;11312;51.464;6.968;2023-05-07T02:16:08;2.08;;;1.33;;
22287;SDS011;11312;51.464;6.968;2023-05-07T02:18:33;2.03;;;1.25;;
22287;SDS011;11312;51.464;6.968;2023-05-07T02:21:00;4.38;;;1.65;;
22287;SDS011;11312;51.464;6.968;2023-05-07T02:23:26;1.63;;;1.20;;
22287;SDS011;11312;51.464;6.968;2023-05-07T02:25:51;5.03;;;2.05;;
22287;SDS011;11312;51.464;6.968;2023-05-07T02:28:17;5.43;;;2.42;;
22287;SDS011;11312;51.464;6.968;2023-05-07T02:30:43;3.85;;;1.73;;
22287;SDS011;11312;51.464;6.968;2023-05-07T02:33:08;5.20;;;2.20;;
22287;SDS011;11312;51.464;6.968;2023-05-07T02:35:34;4.45;;;1.75;;
22287;SDS011;11312;51.464;6.968;2023-05-07T02:38:00;3.47;;;1.75;;
22287;SDS011;11312;51.464;6.968;2023-05-07T02:40:25;2.28;;;1.33;;
22287;SDS011;11312;51.464;6.968;2023-05-07T02:42:51;3.88;;;2.05;;
22287;SDS011;11312;51.464;6.968;2023-05-07T02:45:16;5.03;;;2.08;;
22287;SDS011;11312;51.464;6.968;2023-05-07T02:47:42;5.15;;;2.00;;
22287;SDS011;11312;51.464;6.968;2023-05-07T02:50:08;2.83;;;1.40;;
22287;SDS011;11312;51.464;6.968;2023-05-07T02:52:34;2.97;;;1.52;;
22287;SDS011;11312;51.464;6.968;2023-05-07T02:54:59;3.00;;;1.58;;
22287;SDS011;11312;51.464;6.968;2023-05-07T02:57:25;2.75;;;1.42;;
22287;SDS011;11312;51.464;6.968;2023-05-07T02:59:50;5.20;;;2.03;;
22287;SDS011;11312;51.464;6.968;2023-05-07T03:02:16;4.07;;;1.60;;
22287;SDS011;11312;51.464;6.968;2023-05-07T03:04:42;4.68;;;1.75;;
22287;SDS011;11312;51.464;6.968;2023-05-07T03:07:07;2.97;;;1.60;;
22287;SDS011;11312;51.464;6.968;2023-05-07T03:09:33;5.43;;;1.92;;
22287;SDS011;11312;51.464;6.968;2023-05-07T03:11:58;3.83;;;1.67;;
22287;SDS011;11312;51.464;6.968;2023-05-07T03:14:24;3.00;;;1.55;;
22287;SDS011;11312;51.464;6.968;2023-05-07T03:16:50;4.80;;;1.83;;
22287;SDS011;11312;51.464;6.968;2023-05-07T03:19:15;4.03;;;1.60;;
22287;SDS011;11312;51.464;6.968;2023-05-07T03:21:41;3.88;;;1.85;;
22287;SDS011;11312;51.464;6.968;2023-05-07T03:24:07;5.57;;;2.13;;
22287;SDS011;11312;51.464;6.968;2023-05-07T03:26:33;6.07;;;2.15;;
22287;SDS011;11312;51.464;6.968;2023-05-07T03:28:58;4.80;;;1.90;;
22287;SDS011;11312;51.464;6.968;2023-05-07T03:31:24;4.40;;;1.80;;
22287;SDS011;11312;51.464;6.968;2023-05-07T03:33:51;4.47;;;1.90;;
22287;SDS011;11312;51.464;6.968;2023-05-07T03:36:17;2.50;;;1.30;;
22287;SDS011;11312;51.464;6.968;2023-05-07T03:38:43;3.03;;;1.52;;
22287;SDS011;11312;51.464;6.968;2023-05-07T03:41:08;4.65;;;2.03;;
22287;SDS011;11312;51.464;6.968;2023-05-07T03:43:34;4.95;;;2.13;;
22287;SDS011;11312;51.464;6.968;2023-05-07T03:46:00;4.68;;;1.92;;
22287;SDS011;11312;51.464;6.968;2023-05-07T03:48:25;4.80;;;2.13;;
22287;SDS011;11312;51.464;6.968;2023-05-07T03:50:51;5.80;;;2.20;;
22287;SDS011;11312;51.464;6.968;2023-05-07T03:53:17;3.22;;;1.70;;
22287;SDS011;11312;51.464;6.968;2023-05-07T03:55:42;3.75;;;1.70;;
22287;SDS011;11312;51.464;6.968;2023-05-07T03:58:08;5.25;;;2.08;;
22287;SDS011;11312;51.464;6.968;2023-05-07T04:00:33;5.93;;;2.08;;
22287;SDS011;11312;51.464;6.968;2023-05-07T04:03:03;4.40;;;1.98;;
22287;SDS011;11312;51.464;6.968;2023-05-07T04:05:29;3.58;;;1.50;;
22287;SDS011;11312;51.464;6.968;2023-05-07T04:07:55;2.55;;;1.40;;
22287;SDS011;11312;51.464;6.968;2023-05-07T04:10:22;5.50;;;2.35;;
22287;SDS011;11312;51.464;6.968;2023-05-07T04:12:48;5.95;;;2.03;;
22287;SDS011;11312;51.464;6.968;2023-05-07T04:15:13;5.47;;;1.90;;
22287;SDS011;11312;51.464;6.968;2023-05-07T04:17:39;6.00;;;2.05;;
22287;SDS011;11312;51.464;6.968;2023-05-07T04:20:06;4.50;;;2.00;;
22287;SDS011;11312;51.464;6.968;2023-05-07T04:22:35;4.00;;;1.88;;
22287;SDS011;11312;51.464;6.968;2023-05-07T04:25:01;5.75;;;2.00;;
22287;SDS011;11312;51.464;6.968;2023-05-07T04:27:28;5.25;;;2.53;;
22287;SDS011;11312;51.464;6.968;2023-05-07T04:29:53;6.40;;;2.53;;
22287;SDS011;11312;51.464;6.968;2023-05-07T04:32:21;4.00;;;1.80;;
22287;SDS011;11312;51.464;6.968;2023-05-07T04:34:47;4.47;;;1.92;;
22287;SDS011;11312;51.464;6.968;2023-05-07T04:37:13;4.65;;;1.90;;
22287;SDS011;11312;51.464;6.968;2023-05-07T04:39:38;5.20;;;1.88;;
22287;SDS011;11312;51.464;6.968;2023-05-07T04:42:04;5.82;;;2.20;;
22287;SDS011;11312;51.464;6.968;2023-05-07T04:44:32;8.07;;;1.67;;
22287;SDS011;11312;51.464;6.968;2023-05-07T04:46:58;6.97;;;2.75;;
22287;SDS011;11312;51.464;6.968;2023-05-07T04:49:23;4.93;;;1.80;;
22287;SDS011;11312;51.464;6.968;2023-05-07T04:51:49;4.75;;;1.80;;
22287;SDS011;11312;51.464;6.968;2023-05-07T04:54:15;2.13;;;1.35;;
22287;SDS011;11312;51.464;6.968;2023-05-07T04:56:40;4.78;;;2.05;;
22287;SDS011;11312;51.464;6.968;2023-05-07T04:59:06;4.55;;;1.90;;
22287;SDS011;11312;51.464;6.968;2023-05-07T05:01:32;3.08;;;1.52;;
22287;SDS011;11312;51.464;6.968;2023-05-07T05:03:58;4.82;;;1.85;;
22287;SDS011;11312;51.464;6.968;2023-05-07T05:06:25;5.32;;;2.20;;
22287;SDS011;11312;51.464;6.968;2023-05-07T05:08:51;3.90;;;1.70;;
22287;SDS011;11312;51.464;6.968;2023-05-07T05:11:16;4.65;;;1.90;;
22287;SDS011;11312;51.464;6.968;2023-05-07T05:13:42;6.22;;;2.00;;
22287;SDS011;11312;51.464;6.968;2023-05-07T05:16:08;5.00;;;2.03;;
22287;SDS011;11312;51.464;6.968;2023-05-07T05:18:34;6.82;;;2.60;;
22287;SDS011;11312;51.464;6.968;2023-05-07T05:20:59;9.27;;;2.75;;
22287;SDS011;11312;51.464;6.968;2023-05-07T05:23:25;5.18;;;2.00;;
22287;SDS011;11312;51.464;6.968;2023-05-07T05:25:56;7.10;;;2.30;;
22287;SDS011;11312;51.464;6.968;2023-05-07T05:28:22;4.03;;;1.50;;
22287;SDS011;11312;51.464;6.968;2023-05-07T05:30:48;5.78;;;2.10;;
22287;SDS011;11312;51.464;6.968;2023-05-07T05:33:14;7.40;;;2.65;;
22287;SDS011;11312;51.464;6.968;2023-05-07T05:35:40;4.07;;;1.85;;
22287;SDS011;11312;51.464;6.968;2023-05-07T05:38:06;3.92;;;1.60;;
22287;SDS011;11312;51.464;6.968;2023-05-07T05:40:32;4.97;;;1.85;;
22287;SDS011;11312;51.464;6.968;2023-05-07T05:42:58;3.08;;;1.40;;
22287;SDS011;11312;51.464;6.968;2023-05-07T05:45:24;5.75;;;2.67;;
22287;SDS011;11312;51.464;6.968;2023-05-07T05:47:50;3.45;;;1.70;;
22287;SDS011;11312;51.464;6.968;2023-05-07T05:50:15;3.58;;;1.75;;
22287;SDS011;11312;51.464;6.968;2023-05-07T05:52:41;8.95;;;2.95;;
22287;SDS011;11312;51.464;6.968;2023-05-07T05:55:07;4.85;;;1.83;;
22287;SDS011;11312;51.464;6.968;2023-05-07T05:57:33;3.55;;;1.60;;
22287;SDS011;11312;51.464;6.968;2023-05-07T05:59:59;3.35;;;1.50;;
22287;SDS011;11312;51.464;6.968;2023-05-07T06:02:26;3.72;;;1.67;;
22287;SDS011;11312;51.464;6.968;2023-05-07T06:04:52;7.13;;;2.67;;
22287;SDS011;11312;51.464;6.968;2023-05-07T06:07:17;2.63;;;1.48;;
22287;SDS011;11312;51.464;6.968;2023-05-07T06:09:43;1.55;;;1.17;;
22287;SDS011;11312;51.464;6.968;2023-05-07T06:12:09;2.22;;;1.38;;
22287;SDS011;11312;51.464;6.968;2023-05-07T06:14:34;3.47;;;1.77;;
22287;SDS011;11312;51.464;6.968;2023-05-07T06:17:00;2.28;;;1.30;;
22287;SDS011;11312;51.464;6.968;2023-05-07T06:19:26;5.15;;;2.38;;
22287;SDS011;11312;51.464;6.968;2023-05-07T06:21:53;2.88;;;1.65;;
22287;SDS011;11312;51.464;6.968;2023-05-07T06:24:19;2.03;;;1.20;;
22287;SDS011;11312;51.464;6.968;2023-05-07T06:26:44;4.05;;;1.60;;
22287;SDS011;11312;51.464;6.968;2023-05-07T06:29:10;5.32;;;2.40;;
22287;SDS011;11312;51.464;6.968;2023-05-07T06:31:36;3.47;;;1.52;;
22287;SDS011;11312;51.464;6.968;2023-05-07T06:34:01;1.45;;;1.13;;
22287;SDS011;11312;51.464;6.968;2023-05-07T06:36:27;2.70;;;1.50;;
22287;SDS011;11312;51.464;6.968;2023-05-07T06:38:53;2.78;;;1.30;;
22287;SDS011;11312;51.464;6.968;2023-05-07T06:41:19;4.85;;;1.75;;
22287;SDS011;11312;51.464;6.968;2023-05-07T06:43:45;3.35;;;1.60;;
22287;SDS011;11312;51.464;6.968;2023-05-07T06:46:11;3.85;;;1.80;;
22287;SDS011;11312;51.464;6.968;2023-05-07T06:48:36;2.55;;;1.23;;
22287;SDS011;11312;51.464;6.968;2023-05-07T06:51:02;4.97;;;1.88;;
22287;SDS011;11312;51.464;6.968;2023-05-07T06:53:28;3.10;;;1.45;;
22287;SDS011;11312;51.464;6.968;2023-05-07T06:55:55;5.32;;;1.80;;
22287;SDS011;11312;51.464;6.968;2023-05-07T06:58:21;3.92;;;1.58;;
22287;SDS011;11312;51.464;6.968;2023-05-07T07:00:47;2.33;;;1.40;;
22287;SDS011;11312;51.464;6.968;2023-05-07T07:03:13;1.88;;;1.10;;
22287;SDS011;11312;51.464;6.968;2023-05-07T07:05:40;3.00;;;1.52;;
22287;SDS011;11312;51.464;6.968;2023-05-07T07:08:06;7.03;;;1.45;;
22287;SDS011;11312;51.464;6.968;2023-05-07T07:10:32;2.72;;;1.60;;
22287;SDS011;11312;51.464;6.968;2023-05-07T07:12:58;1.90;;;1.15;;
22287;SDS011;11312;51.464;6.968;2023-05-07T07:15:23;2.75;;;1.50;;
22287;SDS011;11312;51.464;6.968;2023-05-07T07:17:50;1.02;;;0.93;;
22287;SDS011;11312;51.464;6.968;2023-05-07T07:20:16;0.80;;;0.80;;
22287;SDS011;11312;51.464;6.968;2023-05-07T07:22:41;2.13;;;1.20;;
22287;SDS011;11312;51.464;6.968;2023-05-07T07:25:07;3.03;;;1.50;;
22287;SDS011;11312;51.464;6.968;2023-05-07T07:27:33;1.65;;;1.15;;
22287;SDS011;11312;51.464;6.968;2023-05-07T07:29:59;1.60;;;1.10;;
22287;SDS011;11312;51.464;6.968;2023-05-07T07:32:24;2.20;;;1.15;;
22287;SDS011;11312;51.464;6.968;2023-05-07T07:34:50;2.92;;;1.20;;
22287;SDS011;11312;51.464;6.968;2023-05-07T07:37:16;1.15;;;0.95;;
22287;SDS011;11312;51.464;6.968;2023-05-07T07:39:41;0.90;;;0.90;;
22287;SDS011;11312;51.464;6.968;2023-05-07T07:42:07;3.08;;;1.40;;
22287;SDS011;11312;51.464;6.968;2023-05-07T07:44:33;1.23;;;1.00;;
22287;SDS011;11312;51.464;6.968;2023-05-07T07:46:58;2.28;;;1.00;;
22287;SDS011;11312;51.464;6.968;2023-05-07T07:49:24;0.90;;;0.90;;
22287;SDS011;11312;51.464;6.968;2023-05-07T07:51:49;1.88;;;1.15;;
22287;SDS011;11312;51.464;6.968;2023-05-07T07:54:16;1.40;;;1.02;;
22287;SDS011;11312;51.464;6.968;2023-05-07T07:56:41;1.65;;;1.00;;
22287;SDS011;11312;51.464;6.968;2023-05-07T07:59:07;0.70;;;0.70;;
22287;SDS011;11312;51.464;6.968;2023-05-07T08:01:33;0.85;;;0.85;;
22287;SDS011;11312;51.464;6.968;2023-05-07T08:03:58;1.48;;;1.02;;
22287;SDS011;11312;51.464;6.968;2023-05-07T08:06:24;0.98;;;0.77;;
22287;SDS011;11312;51.464;6.968;2023-05-07T08:08:53;1.02;;;0.90;;
22287;SDS011;11312;51.464;6.968;2023-05-07T08:11:19;1.13;;;1.00;;
22287;SDS011;11312;51.464;6.968;2023-05-07T08:13:45;1.42;;;0.93;;
22287;SDS011;11312;51.464;6.968;2023-05-07T08:16:11;1.70;;;1.10;;
22287;SDS011;11312;51.464;6.968;2023-05-07T08:18:37;0.85;;;0.85;;
22287;SDS011;11312;51.464;6.968;2023-05-07T08:21:02;0.70;;;0.70;;
22287;SDS011;11312;51.464;6.968;2023-05-07T08:23:28;0.88;;;0.82;;
22287;SDS011;11312;51.464;6.968;2023-05-07T08:25:54;2.72;;;1.67;;
22287;SDS011;11312;51.464;6.968;2023-05-07T08:28:19;0.70;;;0.70;;
22287;SDS011;11312;51.464;6.968;2023-05-07T08:30:46;0.70;;;0.70;;
22287;SDS011;11312;51.464;6.968;2023-05-07T08:33:12;0.80;;;0.80;;
22287;SDS011;11312;51.464;6.968;2023-05-07T08:35:38;0.60;;;0.60;;
22287;SDS011;11312;51.464;6.968;2023-05-07T08:38:03;0.68;;;0.68;;
22287;SDS011;11312;51.464;6.968;2023-05-07T08:40:29;0.77;;;0.77;;
22287;SDS011;11312;51.464;6.968;2023-05-07T08:43:01;1.70;;;0.82;;
22287;SDS011;11312;51.464;6.968;2023-05-07T08:45:28;0.77;;;0.77;;
22287;SDS011;11312;51.464;6.968;2023-05-07T08:48:01;0.82;;;0.80;;
22287;SDS011;11312;51.464;6.968;2023-05-07T08:50:29;2.05;;;1.13;;
22287;SDS011;11312;51.464;6.968;2023-05-07T08:52:55;0.88;;;0.77;;
22287;SDS011;11312;51.464;6.968;2023-05-07T08:55:22;1.25;;;0.98;;
22287;SDS011;11312;51.464;6.968;2023-05-07T08:57:48;2.05;;;1.10;;
22287;SDS011;11312;51.464;6.968;2023-05-07T09:00:15;0.60;;;0.60;;
22287;SDS011;11312;51.464;6.968;2023-05-07T09:02:41;1.35;;;0.70;;
22287;SDS011;11312;51.464;6.968;2023-05-07T09:05:06;1.95;;;1.13;;
22287;SDS011;11312;51.464;6.968;2023-05-07T09:07:34;0.77;;;0.75;;
22287;SDS011;11312;51.464;6.968;2023-05-07T09:10:03;0.40;;;0.40;;
22287;SDS011;11312;51.464;6.968;2023-05-07T09:12:30;1.75;;;1.00;;
22287;SDS011;11312;51.464;6.968;2023-05-07T09:14:56;0.38;;;0.38;;
22287;SDS011;11312;51.464;6.968;2023-05-07T09:17:22;0.85;;;0.68;;
22287;SDS011;11312;51.464;6.968;2023-05-07T09:19:47;0.70;;;0.70;;
22287;SDS011;11312;51.464;6.968;2023-05-07T09:22:13;0.30;;;0.30;;
22287;SDS011;11312;51.464;6.968;2023-05-07T09:24:39;0.75;;;0.50;;
22287;SDS011;11312;51.464;6.968;2023-05-07T09:27:05;0.60;;;0.60;;
22287;SDS011;11312;51.464;6.968;2023-05-07T09:29:31;0.35;;;0.35;;
22287;SDS011;11312;51.464;6.968;2023-05-07T09:32:07;1.08;;;0.65;;
22287;SDS011;11312;51.464;6.968;2023-05-07T09:34:33;0.40;;;0.40;;
22287;SDS011;11312;51.464;6.968;2023-05-07T09:37:03;0.63;;;0.50;;
22287;SDS011;11312;51.464;6.968;2023-05-07T09:39:43;0.88;;;0.52;;
22287;SDS011;11312;51.464;6.968;2023-05-07T09:42:10;0.93;;;0.60;;
22287;SDS011;11312;51.464;6.968;2023-05-07T09:44:36;0.80;;;0.50;;
22287;SDS011;11312;51.464;6.968;2023-05-07T09:47:06;0.30;;;0.30;;
22287;SDS011;11312;51.464;6.968;2023-05-07T09:49:36;0.55;;;0.50;;
22287;SDS011;11312;51.464;6.968;2023-05-07T09:52:05;0.60;;;0.40;;
22287;SDS011;11312;51.464;6.968;2023-05-07T09:54:33;0.63;;;0.50;;
22287;SDS011;11312;51.464;6.968;2023-05-07T09:57:02;0.28;;;0.22;;
22287;SDS011;11312;51.464;6.968;2023-05-07T09:59:30;6.85;;;0.95;;
22287;SDS011;11312;51.464;6.968;2023-05-07T10:01:58;2.10;;;0.90;;
22287;SDS011;11312;51.464;6.968;2023-05-07T10:04:24;0.80;;;0.75;;
22287;SDS011;11312;51.464;6.968;2023-05-07T10:06:51;0.40;;;0.40;;
22287;SDS011;11312;51.464;6.968;2023-05-07T10:09:18;1.20;;;0.60;;
22287;SDS011;11312;51.464;6.968;2023-05-07T10:11:44;0.52;;;0.50;;
22287;SDS011;11312;51.464;6.968;2023-05-07T10:14:13;2.47;;;1.00;;
22287;SDS011;11312;51.464;6.968;2023-05-07T10:16:39;0.82;;;0.50;;
22287;SDS011;11312;51.464;6.968;2023-05-07T10:19:07;1.03;;;0.60;;
22287;SDS011;11312;51.464;6.968;2023-05-07T10:21:37;0.20;;;0.20;;
22287;SDS011;11312;51.464;6.968;2023-05-07T10:24:13;0.60;;;0.50;;
22287;SDS011;11312;51.464;6.968;2023-05-07T10:26:45;3.22;;;0.75;;
22287;SDS011;11312;51.464;6.968;2023-05-07T10:29:15;0.20;;;0.20;;
22287;SDS011;11312;51.464;6.968;2023-05-07T10:32:51;0.50;;;0.35;;
22287;SDS011;11312;51.464;6.968;2023-05-07T10:35:03;0.40;;;0.40;;
22287;SDS011;11312;51.464;6.968;2023-05-07T10:37:34;0.65;;;0.40;;
22287;SDS011;11312;51.464;6.968;2023-05-07T10:40:00;1.55;;;0.70;;
22287;SDS011;11312;51.464;6.968;2023-05-07T10:42:26;0.73;;;0.70;;
22287;SDS011;11312;51.464;6.968;2023-05-07T10:44:51;0.47;;;0.47;;
22287;SDS011;11312;51.464;6.968;2023-05-07T10:47:17;1.48;;;1.05;;
22287;SDS011;11312;51.464;6.968;2023-05-07T10:52:16;0.75;;;0.50;;
22287;SDS011;11312;51.464;6.968;2023-05-07T10:55:18;0.32;;;0.30;;
22287;SDS011;11312;51.464;6.968;2023-05-07T10:57:45;0.40;;;0.40;;
22287;SDS011;11312;51.464;6.968;2023-05-07T11:00:56;4.95;;;1.25;;
22287;SDS011;11312;51.464;6.968;2023-05-07T11:03:05;2.13;;;0.85;;
22287;SDS011;11312;51.464;6.968;2023-05-07T11:05:32;0.80;;;0.40;;
22287;SDS011;11312;51.464;6.968;2023-05-07T12:27:06;0.65;;;0.65;;
22287;SDS011;11312;51.464;6.968;2023-05-07T12:29:31;0.43;;;0.43;;
22287;SDS011;11312;51.464;6.968;2023-05-07T12:31:57;0.50;;;0.50;;
22287;SDS011;11312;51.464;6.968;2023-05-07T12:34:23;1.13;;;0.60;;
22287;SDS011;11312;51.464;6.968;2023-05-07T12:36:49;1.45;;;0.70;;
22287;SDS011;11312;51.464;6.968;2023-05-07T12:39:15;1.00;;;0.70;;
22287;SDS011;11312;51.464;6.968;2023-05-07T12:41:56;2.08;;;0.98;;
22287;SDS011;11312;51.464;6.968;2023-05-07T12:44:29;0.93;;;0.75;;
22287;SDS011;11312;51.464;6.968;2023-05-07T12:46:56;0.57;;;0.57;;
22287;SDS011;11312;51.464;6.968;2023-05-07T12:49:22;1.65;;;0.80;;
22287;SDS011;11312;51.464;6.968;2023-05-07T12:51:48;1.23;;;0.80;;
22287;SDS011;11312;51.464;6.968;2023-05-07T12:54:37;0.82;;;0.77;;
22287;SDS011;11312;51.464;6.968;2023-05-07T12:57:03;0.80;;;0.60;;
22287;SDS011;11312;51.464;6.968;2023-05-07T12:59:34;1.25;;;0.80;;
22287;SDS011;11312;51.464;6.968;2023-05-07T13:02:04;0.60;;;0.60;;
22287;SDS011;11312;51.464;6.968;2023-05-07T13:04:30;0.80;;;0.70;;
22287;SDS011;11312;51.464;6.968;2023-05-07T13:06:56;0.73;;;0.70;;
22287;SDS011;11312;51.464;6.968;2023-05-07T13:09:21;0.40;;;0.40;;
22287;SDS011;11312;51.464;6.968;2023-05-07T13:11:47;1.13;;;0.80;;
22287;SDS011;11312;51.464;6.968;2023-05-07T13:14:13;1.23;;;0.90;;
22287;SDS011;11312;51.464;6.968;2023-05-07T13:16:38;12.23;;;2.08;;
22287;SDS011;11312;51.464;6.968;2023-05-07T13:19:04;1.42;;;0.93;;
22287;SDS011;11312;51.464;6.968;2023-05-07T13:21:30;0.60;;;0.60;;
22287;SDS011;11312;51.464;6.968;2023-05-07T13:23:57;0.50;;;0.50;;
22287;SDS011;11312;51.464;6.968;2023-05-07T13:26:23;0.60;;;0.60;;
22287;SDS011;11312;51.464;6.968;2023-05-07T13:28:49;1.08;;;0.70;;
22287;SDS011;11312;51.464;6.968;2023-05-07T13:31:16;1.38;;;0.80;;
22287;SDS011;11312;51.464;6.968;2023-05-07T13:33:42;2.83;;;1.15;;
22287;SDS011;11312;51.464;6.968;2023-05-07T13:36:08;1.88;;;0.90;;
22287;SDS011;11312;51.464;6.968;2023-05-07T13:38:34;1.10;;;0.80;;
22287;SDS011;11312;51.464;6.968;2023-05-07T13:41:00;1.08;;;0.73;;
22287;SDS011;11312;51.464;6.968;2023-05-07T13:43:25;0.82;;;0.70;;
22287;SDS011;11312;51.464;6.968;2023-05-07T13:45:51;6.07;;;1.70;;
22287;SDS011;11312;51.464;6.968;2023-05-07T13:48:17;1.50;;;0.90;;
22287;SDS011;11312;51.464;6.968;2023-05-07T13:50:42;0.50;;;0.50;;
22287;SDS011;11312;51.464;6.968;2023-05-07T13:53:08;1.92;;;0.98;;
22287;SDS011;11312;51.464;6.968;2023-05-07T13:55:34;1.15;;;0.80;;
22287;SDS011;11312;51.464;6.968;2023-05-07T13:58:00;1.65;;;1.13;;
22287;SDS011;11312;51.464;6.968;2023-05-07T14:00:28;1.65;;;0.90;;
22287;SDS011;11312;51.464;6.968;2023-05-07T14:02:54;0.80;;;0.73;;
22287;SDS011;11312;51.464;6.968;2023-05-07T14:05:21;1.25;;;0.80;;
22287;SDS011;11312;51.464;6.968;2023-05-07T14:07:49;3.15;;;1.52;;
22287;SDS011;11312;51.464;6.968;2023-05-07T14:10:19;3.45;;;1.52;;
22287;SDS011;11312;51.464;6.968;2023-05-07T14:12:45;1.98;;;0.95;;
22287;SDS011;11312;51.464;6.968;2023-05-07T14:15:11;0.65;;;0.65;;
22287;SDS011;11312;51.464;6.968;2023-05-07T14:17:37;1.35;;;0.77;;
22287;SDS011;11312;51.464;6.968;2023-05-07T14:20:03;1.83;;;1.05;;
22287;SDS011;11312;51.464;6.968;2023-05-07T14:22:28;0.85;;;0.70;;
22287;SDS011;11312;51.464;6.968;2023-05-07T14:24:54;0.70;;;0.70;;
22287;SDS011;11312;51.464;6.968;2023-05-07T14:27:20;1.23;;;0.75;;
22287;SDS011;11312;51.464;6.968;2023-05-07T14:29:45;2.63;;;1.00;;
22287;SDS011;11312;51.464;6.968;2023-05-07T14:32:15;3.28;;;1.67;;
22287;SDS011;11312;51.464;6.968;2023-05-07T14:34:42;0.77;;;0.73;;
22287;SDS011;11312;51.464;6.968;2023-05-07T14:37:08;2.28;;;1.15;;
22287;SDS011;11312;51.464;6.968;2023-05-07T14:39:34;1.88;;;1.15;;
22287;SDS011;11312;51.464;6.968;2023-05-07T14:41:59;2.22;;;1.20;;
22287;SDS011;11312;51.464;6.968;2023-05-07T14:44:25;0.63;;;0.63;;
22287;SDS011;11312;51.464;6.968;2023-05-07T14:46:51;1.15;;;0.93;;
22287;SDS011;11312;51.464;6.968;2023-05-07T14:49:16;4.93;;;1.73;;
22287;SDS011;11312;51.464;6.968;2023-05-07T14:51:43;2.28;;;1.10;;
22287;SDS011;11312;51.464;6.968;2023-05-07T14:54:14;1.15;;;0.82;;
22287;SDS011;11312;51.464;6.968;2023-05-07T14:56:40;2.53;;;1.20;;
22287;SDS011;11312;51.464;6.968;2023-05-07T14:59:06;1.70;;;1.10;;
22287;SDS011;11312;51.464;6.968;2023-05-07T15:01:34;0.80;;;0.75;;
22287;SDS011;11312;51.464;6.968;2023-05-07T15:04:00;0.88;;;0.70;;
22287;SDS011;11312;51.464;6.968;2023-05-07T15:06:26;1.23;;;0.93;;
22287;SDS011;11312;51.464;6.968;2023-05-07T15:08:52;0.93;;;0.80;;
22287;SDS011;11312;51.464;6.968;2023-05-07T15:11:17;5.35;;;1.75;;
22287;SDS011;11312;51.464;6.968;2023-05-07T15:13:43;1.67;;;1.15;;
22287;SDS011;11312;51.464;6.968;2023-05-07T15:16:09;3.00;;;1.23;;
22287;SDS011;11312;51.464;6.968;2023-05-07T15:18:34;2.17;;;0.85;;
22287;SDS011;11312;51.464;6.968;2023-05-07T15:21:00;1.10;;;0.73;;
22287;SDS011;11312;51.464;6.968;2023-05-07T15:23:26;5.53;;;1.48;;
22287;SDS011;11312;51.464;6.968;2023-05-07T15:25:52;5.57;;;1.52;;
22287;SDS011;11312;51.464;6.968;2023-05-07T15:28:18;2.55;;;1.23;;
22287;SDS011;11312;51.464;6.968;2023-05-07T15:30:44;4.25;;;1.55;;
22287;SDS011;11312;51.464;6.968;2023-05-07T15:33:09;0.70;;;0.70;;
22287;SDS011;11312;51.464;6.968;2023-05-07T15:35:36;3.92;;;1.08;;
22287;SDS011;11312;51.464;6.968;2023-05-07T15:38:02;1.52;;;0.93;;
22287;SDS011;11312;51.464;6.968;2023-05-07T15:40:28;5.25;;;1.38;;
22287;SDS011;11312;51.464;6.968;2023-05-07T15:42:54;1.58;;;0.82;;
22287;SDS011;11312;51.464;6.968;2023-05-07T15:45:21;1.77;;;0.90;;
22287;SDS011;11312;51.464;6.968;2023-05-07T15:47:46;1.80;;;0.93;;
22287;SDS011;11312;51.464;6.968;2023-05-07T15:50:12;3.35;;;1.45;;
22287;SDS011;11312;51.464;6.968;2023-05-07T15:52:38;2.28;;;1.00;;
22287;SDS011;11312;51.464;6.968;2023-05-07T15:55:04;1.65;;;1.02;;
22287;SDS011;11312;51.464;6.968;2023-05-07T15:57:31;0.95;;;0.80;;
22287;SDS011;11312;51.464;6.968;2023-05-07T15:59:57;1.85;;;1.00;;
22287;SDS011;11312;51.464;6.968;2023-05-07T16:02:23;0.98;;;0.80;;
22287;SDS011;11312;51.464;6.968;2023-05-07T16:04:48;2.88;;;1.38;;
22287;SDS011;11312;51.464;6.968;2023-05-07T16:07:14;6.05;;;2.25;;